Time;durP1;ratioP1;P1;durP2;ratioP2;P2;SDS_P1;SDS_P2;PMS_P1;PMS_P2;Temp;Humidity;BMP_temperature;BMP_pressure;BME280_temperature;BME280_humidity;BME280_pressure;Samples;Min_cycle;Max_cycle;Signal;HPM_P1;HPM_P2
2022/03/04 00:00:59;;;;;;;68.93;24.63;;;0.60;99.90;;;;;;4959949;28;20203;-82
2022/03/04 00:03:25;;;;;;;115.33;24.20;;;0.60;99.90;;;;;;4961015;28;20228;-82
2022/03/04 00:05:51;;;;;;;60.63;23.40;;;0.50;99.90;;;;;;4960016;28;20175;-82
2022/03/04 00:08:17;;;;;;;40.47;21.73;;;0.40;99.90;;;;;;4958385;28;20227;-82
2022/03/04 00:10:42;;;;;;;161.37;27.90;;;0.30;99.90;;;;;;4954825;28;20566;-82
2022/03/04 00:13:08;;;;;;;54.07;24.53;;;0.30;99.90;;;;;;4956450;28;20234;-82
2022/03/04 00:15:34;;;;;;;50.07;22.30;;;0.30;99.90;;;;;;4961461;28;20208;-83
2022/03/04 00:18:00;;;;;;;58.53;25.03;;;0.40;99.90;;;;;;4961192;28;20291;-82
2022/03/04 00:20:26;;;;;;;53.10;23.33;;;0.50;99.90;;;;;;4961007;28;20203;-82
2022/03/04 00:22:51;;;;;;;66.20;24.10;;;0.50;99.90;;;;;;4962792;28;20231;-82
2022/03/04 00:25:18;;;;;;;64.10;24.73;;;0.50;99.90;;;;;;4962136;28;20175;-82
2022/03/04 00:27:44;;;;;;;54.00;22.63;;;0.50;99.90;;;;;;4958043;28;20220;-82
2022/03/04 00:30:10;;;;;;;52.37;23.10;;;0.40;99.90;;;;;;4961232;28;20184;-82
2022/03/04 00:32:36;;;;;;;52.70;22.70;;;0.40;99.90;;;;;;4958314;28;20227;-82
2022/03/04 00:35:04;;;;;;;46.83;21.93;;;0.40;99.90;;;;;;4962790;28;20190;-82
2022/03/04 00:37:30;;;;;;;59.33;23.47;;;0.50;99.90;;;;;;4961513;28;20558;-82
2022/03/04 00:39:56;;;;;;;44.87;21.07;;;0.40;99.90;;;;;;4962847;28;20179;-83
2022/03/04 00:42:21;;;;;;;54.00;21.67;;;0.40;99.90;;;;;;4962987;28;20202;-82
2022/03/04 00:44:47;;;;;;;64.70;22.63;;;0.40;99.90;;;;;;4961613;28;20213;-83
2022/03/04 00:47:13;;;;;;;52.13;22.53;;;0.30;99.90;;;;;;4962487;28;20217;-82
2022/03/04 00:49:39;;;;;;;61.13;21.73;;;0.10;99.90;;;;;;4960457;28;20189;-82
2022/03/04 00:52:05;;;;;;;50.23;23.53;;;0.00;99.90;;;;;;4963080;28;20187;-82
2022/03/04 00:54:31;;;;;;;50.63;22.80;;;-0.10;99.90;;;;;;4961498;28;20198;-82
2022/03/04 00:56:56;;;;;;;55.47;23.33;;;-0.10;99.90;;;;;;4964802;28;20178;-83
2022/03/04 00:59:22;;;;;;;135.80;25.70;;;0.10;99.90;;;;;;4964968;28;20174;-82
2022/03/04 01:01:48;;;;;;;57.17;22.87;;;0.30;99.90;;;;;;4971977;28;20176;-83
2022/03/04 01:04:13;;;;;;;54.10;24.47;;;0.40;99.90;;;;;;4971528;28;20186;-83
2022/03/04 01:06:39;;;;;;;67.73;24.40;;;0.50;99.90;;;;;;4969870;28;20307;-83
2022/03/04 01:09:06;;;;;;;62.00;23.47;;;0.50;99.90;;;;;;4968388;28;20192;-82
2022/03/04 01:11:32;;;;;;;52.60;22.93;;;0.40;99.90;;;;;;4970551;28;20243;-82
2022/03/04 01:13:58;;;;;;;59.47;23.60;;;0.60;99.90;;;;;;4968700;28;20184;-82
2022/03/04 01:16:24;;;;;;;60.90;24.37;;;0.60;99.90;;;;;;4961055;28;20355;-82
2022/03/04 01:18:50;;;;;;;51.73;23.63;;;0.60;99.90;;;;;;4967291;28;20203;-82
2022/03/04 01:21:16;;;;;;;137.43;26.00;;;0.60;99.90;;;;;;4956817;28;20612;-82
2022/03/04 01:23:43;;;;;;;79.27;25.33;;;0.60;99.90;;;;;;4957827;28;20591;-82
2022/03/04 01:26:09;;;;;;;56.27;23.93;;;0.50;99.90;;;;;;4957850;28;20187;-82
2022/03/04 01:28:35;;;;;;;56.57;22.70;;;0.50;99.90;;;;;;4958365;28;20185;-83
2022/03/04 01:31:03;;;;;;;123.67;25.33;;;0.30;99.90;;;;;;4959848;28;20222;-82
2022/03/04 01:33:29;;;;;;;89.07;24.17;;;0.20;99.90;;;;;;4965591;28;20191;-82
2022/03/04 01:35:55;;;;;;;90.63;26.23;;;0.00;99.90;;;;;;4966062;28;20269;-82
2022/03/04 01:38:20;;;;;;;61.53;23.50;;;-0.10;99.90;;;;;;4960682;28;20207;-81
2022/03/04 01:40:46;;;;;;;75.67;29.77;;;0.30;99.90;;;;;;4969260;28;20209;-83
2022/03/04 01:43:12;;;;;;;63.30;24.83;;;0.50;99.90;;;;;;4970224;28;20175;-82
2022/03/04 01:45:38;;;;;;;56.10;24.40;;;0.70;99.90;;;;;;4966506;28;20206;-82
2022/03/04 01:48:04;;;;;;;67.47;23.80;;;0.80;99.90;;;;;;4958204;28;20658;-82
2022/03/04 01:50:30;;;;;;;105.93;23.83;;;0.90;99.90;;;;;;4958458;28;20556;-82
2022/03/04 01:52:56;;;;;;;55.67;24.33;;;0.60;99.90;;;;;;4962807;28;20183;-81
2022/03/04 01:55:22;;;;;;;55.93;25.13;;;0.50;99.90;;;;;;4956979;28;20271;-82
2022/03/04 01:57:49;;;;;;;57.40;23.97;;;0.50;99.90;;;;;;4957731;28;20208;-82
2022/03/04 02:00:15;;;;;;;52.93;23.93;;;0.70;99.90;;;;;;4958181;28;20183;-82
2022/03/04 02:02:43;;;;;;;48.40;23.27;;;0.70;99.90;;;;;;4956863;28;20210;-81
2022/03/04 02:05:16;;;;;;;66.37;25.17;;;0.80;99.90;;;;;;4959483;28;20186;-81
2022/03/04 02:07:44;;;;;;;68.37;23.80;;;0.80;99.90;;;;;;4958801;28;20189;-83
2022/03/04 02:10:10;;;;;;;67.37;23.60;;;0.80;99.90;;;;;;4966518;28;20179;-82
2022/03/04 02:12:37;;;;;;;55.03;24.47;;;0.90;99.90;;;;;;4964344;28;20651;-81
2022/03/04 02:15:04;;;;;;;65.17;24.10;;;0.90;99.90;;;;;;4964141;28;20182;-82
2022/03/04 02:17:31;;;;;;;54.00;25.13;;;0.70;99.90;;;;;;4964702;28;20204;-82
2022/03/04 02:19:58;;;;;;;57.10;25.10;;;0.70;99.90;;;;;;4963478;28;20171;-81
2022/03/04 02:22:24;;;;;;;51.60;22.93;;;0.80;99.90;;;;;;4960359;28;20188;-82
2022/03/04 02:24:50;;;;;;;61.37;22.57;;;1.00;99.90;;;;;;4958811;28;20599;-81
2022/03/04 02:27:16;;;;;;;47.87;23.33;;;0.90;99.90;;;;;;4979380;28;20186;-81
2022/03/04 02:29:43;;;;;;;66.33;22.13;;;0.80;99.90;;;;;;4957235;28;20227;-82
2022/03/04 02:32:09;;;;;;;44.53;22.27;;;0.60;99.90;;;;;;4954949;28;20212;-82
2022/03/04 02:34:35;;;;;;;45.87;22.97;;;0.50;99.90;;;;;;4955097;28;20176;-81
2022/03/04 02:37:01;;;;;;;42.07;22.13;;;0.60;99.90;;;;;;4957141;28;20179;-81
2022/03/04 02:39:26;;;;;;;36.63;21.20;;;0.70;99.90;;;;;;4956561;28;20179;-81
2022/03/04 02:41:52;;;;;;;40.57;22.40;;;0.80;99.90;;;;;;4959100;28;20206;-83
2022/03/04 02:44:18;;;;;;;41.97;23.40;;;0.90;99.90;;;;;;4958856;28;20660;-82
2022/03/04 02:46:44;;;;;;;46.63;23.53;;;0.80;99.90;;;;;;4954794;28;20191;-81
2022/03/04 02:49:11;;;;;;;43.73;22.23;;;0.90;99.90;;;;;;4954100;28;20183;-81
2022/03/04 02:51:37;;;;;;;45.93;22.30;;;1.00;99.90;;;;;;4961774;28;20254;-81
2022/03/04 02:54:03;;;;;;;45.73;24.23;;;1.00;99.90;;;;;;4964099;28;20175;-81
2022/03/04 02:56:29;;;;;;;47.23;24.67;;;1.10;99.90;;;;;;4961738;28;20196;-81
2022/03/04 02:58:55;;;;;;;47.70;24.23;;;1.00;99.90;;;;;;4963238;28;20218;-81
2022/03/04 03:01:21;;;;;;;47.27;24.23;;;1.00;99.90;;;;;;4953747;28;20228;-80
2022/03/04 03:03:47;;;;;;;60.73;25.27;;;1.00;99.90;;;;;;4976883;28;20211;-81
2022/03/04 03:06:13;;;;;;;49.40;23.27;;;1.10;99.90;;;;;;4959273;28;20179;-82
2022/03/04 03:08:38;;;;;;;48.47;23.80;;;0.90;99.90;;;;;;4958836;28;20179;-81
2022/03/04 03:11:04;;;;;;;47.07;23.37;;;1.00;99.90;;;;;;4958149;28;20310;-81
2022/03/04 03:32:33;;;;;;;43.10;22.10;;;1.20;99.90;;;;;;4995552;28;20191;-86
2022/03/04 03:39:48;;;;;;;37.73;19.40;;;1.40;99.90;;;;;;5005799;28;20234;-87
2022/03/04 03:43:42;;;;;;;40.13;19.63;;;1.50;99.90;;;;;;4877642;29;20172;-87
2022/03/04 03:47:04;;;;;;;31.97;18.50;;;1.50;99.90;;;;;;4851700;29;20287;-86
2022/03/04 03:57:46;;;;;;;36.13;19.87;;;1.10;99.90;;;;;;4881971;29;20216;-88
2022/03/04 04:00:58;;;;;;;41.63;21.37;;;1.00;99.90;;;;;;4873791;29;20252;-86
2022/03/04 04:08:00;;;;;;;42.73;22.77;;;1.10;99.90;;;;;;4863335;29;20227;-86
2022/03/04 04:11:29;;;;;;;43.00;22.13;;;1.30;99.90;;;;;;4881772;29;20323;-86
2022/03/04 04:14:33;;;;;;;44.80;22.70;;;1.30;99.90;;;;;;4807813;29;20223;-87
2022/03/04 04:17:49;;;;;;;47.30;24.50;;;1.30;99.90;;;;;;4870378;29;20218;-86
2022/03/04 04:20:15;;;;;;;52.03;25.13;;;1.40;99.90;;;;;;4863921;29;20643;-84
2022/03/04 04:22:41;;;;;;;48.47;24.70;;;1.40;99.90;;;;;;4923494;28;20167;-86
2022/03/04 04:25:20;;;;;;;49.40;25.13;;;1.40;99.90;;;;;;4991474;28;20201;-86
2022/03/04 04:27:46;;;;;;;46.33;24.93;;;1.50;99.90;;;;;;4982727;28;20184;-86
2022/03/04 04:30:12;;;;;;;51.13;25.23;;;1.50;99.90;;;;;;4990966;28;20186;-87
2022/03/04 04:32:38;;;;;;;50.87;25.27;;;1.60;99.90;;;;;;4988974;28;20213;-87
2022/03/04 04:35:04;;;;;;;53.83;24.20;;;1.50;99.90;;;;;;4986528;28;20191;-85
2022/03/04 04:37:30;;;;;;;51.40;26.07;;;1.50;99.90;;;;;;5002879;28;20198;-88
2022/03/04 04:39:57;;;;;;;54.00;27.83;;;1.40;99.90;;;;;;4991567;28;20175;-86
2022/03/04 04:42:23;;;;;;;70.07;26.70;;;1.30;99.90;;;;;;4990915;28;20577;-87
2022/03/04 04:44:48;;;;;;;52.80;26.43;;;1.10;99.90;;;;;;4981501;28;20767;-87
2022/03/04 04:47:14;;;;;;;53.33;26.10;;;1.10;99.90;;;;;;4980083;28;20176;-86
2022/03/04 04:49:43;;;;;;;56.17;28.10;;;1.20;99.90;;;;;;4991038;28;20202;-87
2022/03/04 04:52:09;;;;;;;52.50;26.27;;;1.30;99.90;;;;;;4991705;28;20222;-87
2022/03/04 04:54:35;;;;;;;54.23;26.87;;;1.10;99.90;;;;;;4990660;28;20199;-86
2022/03/04 04:57:02;;;;;;;57.97;26.57;;;1.00;99.90;;;;;;4991013;28;20688;-87
2022/03/04 04:59:33;;;;;;;54.20;25.90;;;1.20;99.90;;;;;;4982644;28;20208;-87
2022/03/04 05:01:59;;;;;;;53.13;25.67;;;1.20;99.90;;;;;;4975608;28;20243;-86
2022/03/04 05:04:25;;;;;;;53.77;25.50;;;1.30;99.90;;;;;;4989244;28;20242;-86
2022/03/04 05:06:51;;;;;;;54.00;27.43;;;1.30;99.90;;;;;;4991175;28;20182;-86
2022/03/04 05:09:17;;;;;;;47.17;23.57;;;1.40;99.90;;;;;;4997881;28;20175;-85
2022/03/04 05:11:43;;;;;;;47.83;23.20;;;1.30;99.90;;;;;;5003982;28;20179;-87
2022/03/04 05:14:09;;;;;;;46.67;23.07;;;1.10;99.90;;;;;;4998065;28;20273;-86
2022/03/04 05:16:36;;;;;;;50.30;24.23;;;1.10;99.90;;;;;;4983791;28;20183;-86
2022/03/04 05:19:02;;;;;;;44.93;22.77;;;1.10;99.90;;;;;;4990387;28;20191;-86
2022/03/04 05:21:28;;;;;;;45.20;22.63;;;1.00;99.90;;;;;;4989651;28;20186;-85
2022/03/04 05:24:00;;;;;;;45.17;22.70;;;0.90;99.90;;;;;;4992580;28;20210;-85
2022/03/04 05:26:27;;;;;;;45.60;22.73;;;0.80;99.90;;;;;;4995284;28;20203;-85
2022/03/04 05:28:56;;;;;;;46.60;22.40;;;0.70;99.90;;;;;;4991485;28;20213;-85
2022/03/04 05:31:22;;;;;;;48.23;23.63;;;0.80;99.90;;;;;;4989465;28;20217;-86
2022/03/04 05:33:54;;;;;;;46.90;22.83;;;0.90;99.90;;;;;;4988706;28;20258;-84
2022/03/04 05:36:23;;;;;;;46.03;22.83;;;0.80;99.90;;;;;;4986454;28;20174;-82
2022/03/04 05:38:52;;;;;;;41.83;21.20;;;0.90;99.90;;;;;;4988001;28;20198;-87
2022/03/04 05:41:19;;;;;;;40.30;20.57;;;0.80;99.90;;;;;;5000229;28;20190;-87
2022/03/04 05:43:46;;;;;;;39.00;20.00;;;0.80;99.90;;;;;;4983993;28;20186;-88
2022/03/04 05:46:13;;;;;;;38.17;19.40;;;1.00;99.90;;;;;;4990459;28;20171;-87
2022/03/04 05:48:39;;;;;;;41.33;20.17;;;1.10;99.90;;;;;;4987219;28;20179;-87
2022/03/04 05:51:05;;;;;;;43.50;20.57;;;1.10;99.90;;;;;;4986872;28;20241;-87
2022/03/04 05:53:32;;;;;;;38.33;20.10;;;1.10;99.90;;;;;;4982485;28;20294;-87
2022/03/04 05:56:00;;;;;;;39.93;19.73;;;1.00;99.90;;;;;;4984833;28;20182;-86
2022/03/04 05:58:27;;;;;;;36.87;19.43;;;1.20;99.90;;;;;;4975065;28;20210;-86
2022/03/04 06:00:53;;;;;;;43.90;20.97;;;1.20;99.90;;;;;;4985994;28;20519;-88
2022/03/04 06:03:19;;;;;;;39.83;20.60;;;1.10;99.90;;;;;;4988210;28;20185;-87
2022/03/04 06:05:45;;;;;;;41.67;19.77;;;1.20;99.90;;;;;;4986198;28;20543;-87
2022/03/04 06:08:11;;;;;;;37.67;19.80;;;1.20;99.90;;;;;;4984568;28;20282;-86
2022/03/04 06:10:37;;;;;;;38.43;19.70;;;1.20;99.90;;;;;;4987794;28;20217;-86
2022/03/04 06:13:06;;;;;;;34.70;17.60;;;1.30;99.90;;;;;;4981780;28;20279;-86
2022/03/04 06:15:33;;;;;;;33.70;16.80;;;1.30;99.90;;;;;;4985842;28;20226;-86
2022/03/04 06:17:59;;;;;;;35.37;18.23;;;1.10;99.90;;;;;;4979305;28;20223;-87
2022/03/04 06:20:25;;;;;;;27.97;16.00;;;1.00;99.90;;;;;;4986775;28;20265;-86
2022/03/04 06:22:51;;;;;;;28.10;15.80;;;0.90;99.90;;;;;;4986868;28;20171;-86
2022/03/04 06:25:17;;;;;;;25.87;15.60;;;0.80;99.90;;;;;;4987593;28;20227;-86
2022/03/04 06:27:59;;;;;;;25.43;14.70;;;0.80;99.90;;;;;;4983031;28;20539;-86
2022/03/04 06:30:28;;;;;;;23.50;13.87;;;0.80;99.90;;;;;;4981905;28;20245;-86
2022/03/04 06:33:30;;;;;;;24.27;13.27;;;0.90;99.90;;;;;;4986791;28;20744;-87
2022/03/04 06:35:42;;;;;;;25.33;13.30;;;0.80;99.90;;;;;;5004536;28;20198;-85
2022/03/04 06:38:08;;;;;;;22.80;12.80;;;0.60;99.90;;;;;;4987870;28;20301;-87
2022/03/04 06:40:34;;;;;;;23.70;13.67;;;0.50;99.90;;;;;;4988913;28;20174;-87
2022/03/04 06:43:00;;;;;;;20.67;12.30;;;0.50;99.90;;;;;;4988446;28;20178;-86
2022/03/04 06:45:26;;;;;;;24.23;12.80;;;0.60;99.90;;;;;;4987020;28;20286;-87
2022/03/04 06:47:53;;;;;;;19.63;11.57;;;0.70;99.90;;;;;;4986341;28;20225;-86
2022/03/04 06:50:19;;;;;;;25.13;12.37;;;0.80;99.90;;;;;;4988415;28;20278;-87
2022/03/04 06:52:44;;;;;;;17.53;10.20;;;0.70;99.90;;;;;;4984175;28;20277;-87
2022/03/04 06:55:11;;;;;;;15.17;9.77;;;0.50;99.90;;;;;;4988334;28;20238;-86
2022/03/04 06:57:37;;;;;;;19.93;10.13;;;0.10;99.90;;;;;;4987878;28;20206;-86
2022/03/04 07:00:09;;;;;;;21.00;10.70;;;-0.10;99.90;;;;;;4993874;28;20640;-87
2022/03/04 07:02:35;;;;;;;17.57;10.93;;;-0.30;99.90;;;;;;5005465;28;20192;-86
2022/03/04 07:05:09;;;;;;;17.57;10.23;;;-0.40;99.90;;;;;;4988734;28;20607;-86
2022/03/04 07:07:36;;;;;;;18.13;10.83;;;-0.60;99.90;;;;;;5005256;28;20178;-86
2022/03/04 07:10:04;;;;;;;19.83;11.73;;;-0.60;99.90;;;;;;4989343;28;20191;-87
2022/03/04 07:12:30;;;;;;;19.50;10.90;;;-0.50;99.90;;;;;;4988205;28;20178;-86
2022/03/04 07:14:56;;;;;;;20.50;11.37;;;-0.40;99.90;;;;;;4988152;28;20198;-86
2022/03/04 07:17:22;;;;;;;20.50;11.07;;;-0.10;99.90;;;;;;4988607;28;20189;-87
2022/03/04 07:19:48;;;;;;;19.07;10.97;;;0.00;99.90;;;;;;4988290;28;20169;-87
2022/03/04 07:22:14;;;;;;;19.07;11.07;;;0.10;99.90;;;;;;4988824;28;20178;-86
2022/03/04 07:24:41;;;;;;;17.60;10.77;;;0.20;99.90;;;;;;4989341;28;20727;-86
2022/03/04 07:27:07;;;;;;;17.70;10.73;;;0.40;99.90;;;;;;4988294;28;20174;-86
2022/03/04 07:29:33;;;;;;;21.53;12.03;;;0.50;99.90;;;;;;4986810;28;20661;-86
2022/03/04 07:32:02;;;;;;;20.30;11.17;;;0.40;99.90;;;;;;4986140;28;20282;-87
2022/03/04 07:34:31;;;;;;;21.83;12.13;;;0.20;99.90;;;;;;4985477;28;20209;-85
2022/03/04 07:36:57;;;;;;;23.07;12.80;;;0.10;99.90;;;;;;4989539;28;20186;-86
2022/03/04 07:39:45;;;;;;;19.20;13.03;;;0.20;99.90;;;;;;4995961;28;20216;-86
2022/03/04 07:42:22;;;;;;;19.67;11.37;;;0.20;99.90;;;;;;4999491;28;20214;-86
2022/03/04 07:44:50;;;;;;;20.17;11.80;;;0.20;99.90;;;;;;4982544;28;20202;-84
2022/03/04 07:47:19;;;;;;;20.53;11.33;;;0.30;99.90;;;;;;4982824;28;20175;-85
2022/03/04 07:49:45;;;;;;;19.77;11.30;;;0.40;99.90;;;;;;4984478;28;20205;-86
2022/03/04 07:52:11;;;;;;;25.17;13.83;;;0.50;99.90;;;;;;4984978;28;20266;-86
2022/03/04 07:54:37;;;;;;;27.30;14.10;;;0.50;99.90;;;;;;4989232;28;20191;-87
2022/03/04 07:57:04;;;;;;;24.27;14.50;;;0.60;99.90;;;;;;4984704;28;20191;-86
2022/03/04 07:59:32;;;;;;;25.77;15.40;;;0.60;99.90;;;;;;4988321;28;20860;-85
2022/03/04 08:01:58;;;;;;;27.83;16.60;;;0.80;99.90;;;;;;4987382;28;20183;-85
2022/03/04 08:04:25;;;;;;;29.77;16.33;;;0.90;99.90;;;;;;4988704;28;20194;-86
2022/03/04 08:06:50;;;;;;;31.03;16.53;;;0.80;99.90;;;;;;4989252;28;20171;-86
2022/03/04 08:09:16;;;;;;;32.77;18.27;;;0.80;99.90;;;;;;4988949;28;20200;-85
2022/03/04 08:11:44;;;;;;;35.43;20.47;;;0.80;99.90;;;;;;4988447;28;20179;-85
2022/03/04 08:14:10;;;;;;;37.37;20.97;;;0.80;99.90;;;;;;4987557;28;20210;-86
2022/03/04 08:16:35;;;;;;;34.17;19.70;;;0.90;99.90;;;;;;4984127;28;20177;-85
2022/03/04 08:19:03;;;;;;;33.27;18.60;;;0.80;99.90;;;;;;4989433;28;20202;-84
2022/03/04 08:21:29;;;;;;;27.70;17.07;;;0.90;99.90;;;;;;4991531;28;20233;-85
2022/03/04 08:23:55;;;;;;;30.17;17.73;;;0.90;99.90;;;;;;4990255;28;20191;-84
2022/03/04 08:26:21;;;;;;;31.93;17.13;;;1.10;99.90;;;;;;4989084;28;20181;-83
2022/03/04 08:28:47;;;;;;;27.77;16.27;;;1.10;99.90;;;;;;4989617;28;20598;-84
2022/03/04 08:31:13;;;;;;;25.77;15.47;;;1.00;99.90;;;;;;4991673;28;20190;-84
2022/03/04 08:33:40;;;;;;;22.23;13.90;;;1.10;99.90;;;;;;4994428;28;20214;-84
2022/03/04 08:36:06;;;;;;;21.53;14.40;;;1.30;99.90;;;;;;4998250;28;20171;-84
2022/03/04 08:38:33;;;;;;;23.27;13.63;;;1.40;99.90;;;;;;4998403;28;20194;-84
2022/03/04 08:41:01;;;;;;;19.37;11.43;;;1.40;99.90;;;;;;4999939;28;20250;-84
2022/03/04 08:43:27;;;;;;;22.30;11.27;;;1.20;99.90;;;;;;4998010;28;20185;-84
2022/03/04 08:45:55;;;;;;;20.10;10.53;;;1.10;99.90;;;;;;4988565;28;20198;-86
2022/03/04 08:48:23;;;;;;;17.47;10.87;;;1.10;99.90;;;;;;4988041;28;20186;-84
2022/03/04 08:50:49;;;;;;;20.07;12.47;;;1.20;99.90;;;;;;4988490;28;20178;-84
2022/03/04 08:53:15;;;;;;;18.80;11.33;;;1.20;99.90;;;;;;4986713;28;20210;-84
2022/03/04 08:55:44;;;;;;;17.03;11.43;;;1.20;99.90;;;;;;4986052;28;20191;-85
2022/03/04 08:58:10;;;;;;;17.30;10.43;;;1.40;99.90;;;;;;4985120;28;20285;-85
2022/03/04 09:00:37;;;;;;;18.07;11.63;;;1.40;99.90;;;;;;4986975;28;20171;-85
2022/03/04 09:03:04;;;;;;;19.60;12.07;;;1.40;99.90;;;;;;4985260;28;20178;-85
2022/03/04 09:05:31;;;;;;;21.73;13.40;;;1.40;99.90;;;;;;4987842;28;20221;-84
2022/03/04 09:07:58;;;;;;;22.17;13.93;;;1.30;99.90;;;;;;4982358;28;20210;-84
2022/03/04 09:10:24;;;;;;;20.90;13.80;;;1.10;99.90;;;;;;4986457;28;20183;-85
2022/03/04 09:12:49;;;;;;;23.60;14.57;;;1.00;99.90;;;;;;4995518;28;20182;-85
2022/03/04 09:15:15;;;;;;;26.17;15.73;;;1.00;99.90;;;;;;4987264;28;20194;-84
2022/03/04 09:17:41;;;;;;;24.37;14.87;;;1.10;99.90;;;;;;4988069;28;20201;-84
2022/03/04 09:20:38;;;;;;;27.80;15.40;;;1.40;99.90;;;;;;4990583;28;20171;-83
2022/03/04 09:23:37;;;;;;;23.57;14.13;;;1.50;99.90;;;;;;4987563;28;20184;-84
2022/03/04 09:26:32;;;;;;;17.87;10.73;;;1.60;99.90;;;;;;5002462;28;20206;-84
2022/03/04 09:29:00;;;;;;;15.97;10.00;;;1.50;99.90;;;;;;4992523;28;20170;-85
2022/03/04 09:31:26;;;;;;;19.47;10.17;;;1.40;99.90;;;;;;4989411;28;20214;-83
2022/03/04 09:33:53;;;;;;;17.67;9.60;;;1.50;99.90;;;;;;4988602;28;20203;-84
2022/03/04 09:36:18;;;;;;;17.60;10.73;;;1.40;99.90;;;;;;4988369;28;20187;-84
2022/03/04 09:38:45;;;;;;;20.67;12.00;;;1.50;99.90;;;;;;4986547;28;20202;-84
2022/03/04 09:41:10;;;;;;;23.27;13.40;;;1.50;99.90;;;;;;4985086;28;20271;-84
2022/03/04 09:43:38;;;;;;;23.60;14.73;;;1.50;99.90;;;;;;4984560;28;20180;-84
2022/03/04 09:46:05;;;;;;;27.23;14.67;;;1.40;99.90;;;;;;4979975;28;20182;-85
2022/03/04 09:48:32;;;;;;;22.63;14.60;;;1.50;99.90;;;;;;4982891;28;20186;-85
2022/03/04 09:50:58;;;;;;;22.90;12.67;;;1.60;99.90;;;;;;4985343;28;20195;-84
2022/03/04 09:53:26;;;;;;;25.13;15.57;;;1.70;99.90;;;;;;4985575;28;20171;-84
2022/03/04 09:55:55;;;;;;;22.97;13.73;;;1.90;99.90;;;;;;4988466;28;20202;-84
2022/03/04 09:58:25;;;;;;;15.83;9.10;;;2.10;99.90;;;;;;4983205;28;20226;-84
2022/03/04 10:00:51;;;;;;;14.30;8.67;;;2.10;99.90;;;;;;4986493;28;20218;-85
2022/03/04 10:03:41;;;;;;;12.60;7.80;;;2.00;99.90;;;;;;4980863;28;20179;-85
2022/03/04 10:06:08;;;;;;;12.63;7.47;;;1.90;99.90;;;;;;4979142;28;20227;-84
2022/03/04 10:08:41;;;;;;;14.13;8.93;;;2.00;99.90;;;;;;4972878;28;20201;-84
2022/03/04 10:11:08;;;;;;;14.50;9.10;;;2.20;99.90;;;;;;4984087;28;20611;-85
2022/03/04 10:13:50;;;;;;;13.20;9.27;;;2.30;99.90;;;;;;4985306;28;20171;-84
2022/03/04 10:16:36;;;;;;;12.20;8.27;;;2.70;99.90;;;;;;4981263;28;20190;-84
2022/03/04 10:19:36;;;;;;;;;;;;;;;;;;;;;
2022/03/04 10:22:25;;;;;;;16.77;10.73;;;2.60;99.90;;;;;;4997655;28;20242;-83
2022/03/04 10:25:03;;;;;;;19.70;13.23;;;2.50;99.90;;;;;;4976850;28;20235;-84
2022/03/04 10:27:58;;;;;;;21.93;15.77;;;2.60;99.90;;;;;;4973891;28;20178;-84
2022/03/04 10:31:05;;;;;;;22.97;13.87;;;2.60;99.90;;;;;;4984311;28;20194;-84
2022/03/04 10:34:13;;;;;;;21.23;14.50;;;2.60;99.90;;;;;;4986801;28;20182;-85
2022/03/04 10:38:04;;;;;;;23.50;16.27;;;2.80;99.90;;;;;;5012774;28;20179;-85
2022/03/04 10:41:40;;;;;;;;;;;;;;;;;;;;;
2022/03/04 10:44:36;;;;;;;19.10;9.90;;;3.20;99.90;;;;;;4970309;28;20213;-84
2022/03/04 10:47:44;;;;;;;13.40;8.80;;;3.60;99.90;;;;;;5006303;28;20171;-84
2022/03/04 10:50:34;;;;;;;14.70;9.43;;;3.90;99.90;;;;;;5014255;28;20198;-84
2022/03/04 10:53:18;;;;;;;17.07;10.83;;;4.20;99.90;;;;;;4998742;28;20237;-85
2022/03/04 10:55:46;;;;;;;19.50;12.43;;;4.10;99.90;;;;;;4990801;28;20235;-84
2022/03/04 10:58:27;;;;;;;30.50;19.93;;;3.90;99.90;;;;;;5000973;28;20277;-85
2022/03/04 11:01:05;;;;;;;25.00;17.77;;;3.80;99.90;;;;;;5000647;28;20170;-85
2022/03/04 11:03:33;;;;;;;27.57;16.23;;;3.80;99.90;;;;;;5012575;28;20190;-85
2022/03/04 11:06:03;;;;;;;30.37;19.20;;;3.90;99.90;;;;;;4996681;28;20246;-84
2022/03/04 11:08:37;;;;;;;30.30;19.73;;;3.80;99.90;;;;;;4993135;28;20194;-84
2022/03/04 11:11:12;;;;;;;29.50;18.83;;;3.60;99.90;;;;;;4992287;28;20187;-85
2022/03/04 11:13:41;;;;;;;26.83;15.93;;;3.50;99.90;;;;;;4987191;28;20261;-86
2022/03/04 11:17:05;;;;;;;;;;;;;;;;;;;;;
2022/03/04 11:20:02;;;;;;;22.83;15.20;;;4.30;99.90;;;;;;5001326;28;20209;-84
2022/03/04 11:23:08;;;;;;;23.60;15.80;;;4.70;99.90;;;;;;4973894;28;20191;-84
2022/03/04 11:25:50;;;;;;;23.40;17.00;;;4.60;99.90;;;;;;4986515;28;20272;-85
2022/03/04 11:28:49;;;;;;;;;;;;;;;;;;;;;
2022/03/04 11:34:56;;;;;;;24.23;15.77;;;3.90;99.90;;;;;;4987903;28;20252;-85
2022/03/04 11:37:28;;;;;;;20.53;14.43;;;4.10;99.90;;;;;;4991168;28;20178;-85
2022/03/04 11:43:06;;;;;;;19.47;12.80;;;4.50;99.90;;;;;;4996614;28;20222;-84
2022/03/04 11:45:50;;;;;;;19.33;13.87;;;4.10;99.90;;;;;;4976474;28;20222;-84
2022/03/04 11:48:31;;;;;;;;;;;;;;;;;;;;;
2022/03/04 11:51:43;;;;;;;14.97;11.57;;;4.20;99.90;;;;;;4990189;28;20265;-85
2022/03/04 11:54:33;;;;;;;16.10;11.13;;;4.80;99.90;;;;;;4977502;28;20285;-84
2022/03/04 11:57:45;;;;;;;13.03;9.80;;;5.10;99.90;;;;;;4983479;28;20277;-84
2022/03/04 12:00:19;;;;;;;12.03;7.90;;;5.20;99.90;;;;;;4978542;28;20218;-84
2022/03/04 12:03:23;;;;;;;12.03;8.00;;;5.60;99.90;;;;;;5010263;28;20206;-84
2022/03/04 12:06:00;;;;;;;14.00;7.73;;;5.60;99.90;;;;;;5008019;28;20227;-85
2022/03/04 12:08:38;;;;;;;11.23;7.03;;;5.80;99.90;;;;;;4987167;28;20181;-84
2022/03/04 12:11:09;;;;;;;13.30;7.17;;;5.90;99.90;;;;;;4988012;28;20182;-85
2022/03/04 12:13:48;;;;;;;9.77;6.47;;;5.70;99.90;;;;;;4999158;28;20196;-85
2022/03/04 12:16:48;;;;;;;10.03;6.93;;;5.20;99.90;;;;;;4981168;28;20175;-85
2022/03/04 12:19:40;;;;;;;12.00;7.30;;;4.90;99.90;;;;;;4974817;28;20211;-83
2022/03/04 12:22:08;;;;;;;12.03;7.00;;;4.80;99.90;;;;;;4969780;28;20182;-84
2022/03/04 12:24:50;;;;;;;10.80;7.00;;;4.50;99.90;;;;;;4986340;28;20226;-83
2022/03/04 12:27:54;;;;;;;13.20;7.30;;;4.30;99.90;;;;;;4977947;28;20169;-83
2022/03/04 12:30:23;;;;;;;12.30;7.43;;;4.20;99.90;;;;;;4955692;28;20231;-83
2022/03/04 12:32:51;;;;;;;12.20;6.60;;;4.10;99.90;;;;;;4985410;28;20175;-82
2022/03/04 12:35:18;;;;;;;11.37;7.43;;;4.20;99.90;;;;;;4984257;28;20204;-84
2022/03/04 12:37:44;;;;;;;13.97;6.83;;;4.30;99.90;;;;;;4981814;28;20206;-82
2022/03/04 12:40:14;;;;;;;10.40;6.93;;;4.20;99.90;;;;;;4984366;28;20226;-83
2022/03/04 12:42:54;;;;;;;10.43;6.33;;;4.10;99.90;;;;;;4986811;28;20209;-83
2022/03/04 12:45:19;;;;;;;11.87;7.00;;;4.10;99.90;;;;;;4979872;28;20198;-83
2022/03/04 12:47:46;;;;;;;16.53;7.30;;;4.10;99.90;;;;;;4984771;28;20191;-83
2022/03/04 12:50:22;;;;;;;12.33;6.13;;;4.20;99.90;;;;;;4981819;28;20178;-83
2022/03/04 12:52:47;;;;;;;12.50;7.20;;;4.30;99.90;;;;;;4998287;28;20182;-83
2022/03/04 12:55:13;;;;;;;12.60;7.23;;;4.40;99.90;;;;;;4985136;28;20305;-84
2022/03/04 12:57:49;;;;;;;9.43;6.20;;;4.50;99.90;;;;;;4986099;28;20190;-84
2022/03/04 13:00:17;;;;;;;11.60;6.47;;;4.60;99.90;;;;;;4996253;28;20172;-84
2022/03/04 13:02:51;;;;;;;10.97;5.73;;;4.70;99.90;;;;;;4985004;28;20206;-84
2022/03/04 13:05:21;;;;;;;8.03;5.07;;;4.80;99.90;;;;;;4976673;28;20197;-83
2022/03/04 13:07:56;;;;;;;8.80;5.50;;;4.80;99.90;;;;;;4982978;28;20202;-83
2022/03/04 13:10:22;;;;;;;9.50;5.60;;;5.00;99.90;;;;;;4976024;28;20334;-83
2022/03/04 13:12:57;;;;;;;8.20;5.67;;;5.00;99.90;;;;;;4984200;28;20207;-83
2022/03/04 13:15:23;;;;;;;8.27;5.07;;;5.10;99.90;;;;;;4981406;28;20662;-83
2022/03/04 13:18:01;;;;;;;6.30;4.77;;;5.10;99.90;;;;;;4983085;28;20298;-83
2022/03/04 13:20:28;;;;;;;10.33;4.63;;;5.20;99.90;;;;;;4984423;28;20640;-83
2022/03/04 13:23:05;;;;;;;6.43;4.47;;;5.30;99.90;;;;;;4984712;28;20186;-84
2022/03/04 13:25:31;;;;;;;5.73;3.80;;;5.30;99.90;;;;;;4975990;28;20200;-83
2022/03/04 13:27:57;;;;;;;5.90;4.17;;;5.30;99.90;;;;;;4978557;28;20184;-83
2022/03/04 13:30:23;;;;;;;6.20;3.57;;;5.40;99.90;;;;;;4992012;28;20197;-83
2022/03/04 13:32:56;;;;;;;7.93;4.10;;;5.50;99.90;;;;;;4980972;28;20232;-83
2022/03/04 13:35:25;;;;;;;6.90;4.50;;;5.50;99.90;;;;;;4997047;28;20230;-83
2022/03/04 13:37:54;;;;;;;7.00;4.40;;;5.60;99.90;;;;;;4975196;28;20231;-82
2022/03/04 13:40:23;;;;;;;7.10;4.07;;;5.80;99.90;;;;;;4989144;28;20180;-84
2022/03/04 13:42:57;;;;;;;8.50;4.10;;;5.90;99.90;;;;;;4977679;28;20186;-83
2022/03/04 13:45:49;;;;;;;5.00;3.63;;;6.20;99.90;;;;;;4976643;28;20280;-84
2022/03/04 13:48:16;;;;;;;6.53;3.50;;;6.50;99.90;;;;;;4972514;28;20244;-82
2022/03/04 13:50:45;;;;;;;7.27;3.80;;;6.70;99.90;;;;;;4979684;28;20170;-83
2022/03/04 13:53:13;;;;;;;9.57;4.57;;;6.90;99.90;;;;;;4977975;28;20176;-83